Terminal Aerodrome Forecast
Issued by NWS

Current Version | Previous Version | Text Only | Print | Product List | Glossary On
Versions: 1 2 3 4 5 6 7 8 9 10 11 12 13 14 15 16 17 18 19
000
FTUS42 KGSP 211517 AAA
TAFHKY
TAF AMD
KHKY 211517Z 2115/2212 00000KT 2SM BR OVC003
      TEMPO 2115/2119 3SM BR SCT003 OVC006
     FM211900 VRB02KT 1 1/2SM -SHRA OVC003
     FM220000 VRB02KT 3SM -SHRA BR OVC003
     FM220600 VRB02KT 1SM SHRA BR OVC003 PROB30 2209/2212 3/4SM TSRA
      BR OVC003CB=

USA.gov is the U.S. government's official web portal to all federal, state and local government web resources and services.